sensor_id;sensor_type;location;lat;lon;timestamp;P1;durP1;ratioP1;P2;durP2;ratioP2
2111;SDS011;1062;52.538;13.400;2023-02-17T00:01:20;25.60;;;16.40;;
2111;SDS011;1062;52.538;13.400;2023-02-17T00:03:48;24.77;;;16.80;;
2111;SDS011;1062;52.538;13.400;2023-02-17T00:06:15;25.37;;;16.30;;
2111;SDS011;1062;52.538;13.400;2023-02-17T00:08:42;25.57;;;15.93;;
2111;SDS011;1062;52.538;13.400;2023-02-17T00:11:08;28.87;;;16.60;;
2111;SDS011;1062;52.538;13.400;2023-02-17T00:13:34;24.93;;;16.50;;
2111;SDS011;1062;52.538;13.400;2023-02-17T00:16:04;25.77;;;18.03;;
2111;SDS011;1062;52.538;13.400;2023-02-17T00:18:59;27.40;;;17.63;;
2111;SDS011;1062;52.538;13.400;2023-02-17T00:21:27;25.53;;;16.17;;
2111;SDS011;1062;52.538;13.400;2023-02-17T00:23:55;26.87;;;18.70;;
2111;SDS011;1062;52.538;13.400;2023-02-17T00:26:21;26.93;;;18.80;;
2111;SDS011;1062;52.538;13.400;2023-02-17T00:28:47;26.50;;;17.27;;
2111;SDS011;1062;52.538;13.400;2023-02-17T00:31:16;27.30;;;16.90;;
2111;SDS011;1062;52.538;13.400;2023-02-17T00:33:44;26.53;;;18.33;;
2111;SDS011;1062;52.538;13.400;2023-02-17T00:36:10;29.50;;;18.57;;
2111;SDS011;1062;52.538;13.400;2023-02-17T00:38:38;31.83;;;17.73;;
2111;SDS011;1062;52.538;13.400;2023-02-17T00:41:04;26.60;;;17.97;;
2111;SDS011;1062;52.538;13.400;2023-02-17T00:43:29;30.70;;;20.70;;
2111;SDS011;1062;52.538;13.400;2023-02-17T00:45:55;26.50;;;17.83;;
2111;SDS011;1062;52.538;13.400;2023-02-17T00:48:21;31.57;;;18.97;;
2111;SDS011;1062;52.538;13.400;2023-02-17T00:50:47;27.00;;;18.73;;
2111;SDS011;1062;52.538;13.400;2023-02-17T00:53:13;27.13;;;18.30;;
2111;SDS011;1062;52.538;13.400;2023-02-17T00:55:38;27.00;;;17.70;;
2111;SDS011;1062;52.538;13.400;2023-02-17T00:58:04;27.30;;;17.57;;
2111;SDS011;1062;52.538;13.400;2023-02-17T01:00:29;27.40;;;20.03;;
2111;SDS011;1062;52.538;13.400;2023-02-17T01:02:55;32.73;;;19.00;;
2111;SDS011;1062;52.538;13.400;2023-02-17T01:05:20;27.47;;;17.67;;
2111;SDS011;1062;52.538;13.400;2023-02-17T01:07:46;27.57;;;17.63;;
2111;SDS011;1062;52.538;13.400;2023-02-17T01:10:12;26.37;;;18.23;;
2111;SDS011;1062;52.538;13.400;2023-02-17T01:12:37;29.60;;;18.70;;
2111;SDS011;1062;52.538;13.400;2023-02-17T01:15:03;30.57;;;18.30;;
2111;SDS011;1062;52.538;13.400;2023-02-17T01:17:30;25.40;;;16.27;;
2111;SDS011;1062;52.538;13.400;2023-02-17T01:19:55;27.80;;;16.23;;
2111;SDS011;1062;52.538;13.400;2023-02-17T01:22:21;28.23;;;16.90;;
2111;SDS011;1062;52.538;13.400;2023-02-17T01:24:47;29.37;;;18.30;;
2111;SDS011;1062;52.538;13.400;2023-02-17T01:27:13;32.70;;;18.40;;
2111;SDS011;1062;52.538;13.400;2023-02-17T01:29:38;25.03;;;17.97;;
2111;SDS011;1062;52.538;13.400;2023-02-17T01:32:04;25.73;;;16.83;;
2111;SDS011;1062;52.538;13.400;2023-02-17T01:34:30;30.50;;;19.50;;
2111;SDS011;1062;52.538;13.400;2023-02-17T01:36:55;32.07;;;17.33;;
2111;SDS011;1062;52.538;13.400;2023-02-17T01:39:21;30.20;;;18.80;;
2111;SDS011;1062;52.538;13.400;2023-02-17T01:41:46;28.40;;;17.70;;
2111;SDS011;1062;52.538;13.400;2023-02-17T01:44:14;23.87;;;15.97;;
2111;SDS011;1062;52.538;13.400;2023-02-17T01:46:43;27.07;;;18.17;;
2111;SDS011;1062;52.538;13.400;2023-02-17T01:52:10;24.13;;;16.50;;
2111;SDS011;1062;52.538;13.400;2023-02-17T01:54:46;26.93;;;16.70;;
2111;SDS011;1062;52.538;13.400;2023-02-17T01:57:19;24.67;;;16.33;;
2111;SDS011;1062;52.538;13.400;2023-02-17T01:59:47;30.50;;;19.30;;
2111;SDS011;1062;52.538;13.400;2023-02-17T02:02:13;33.27;;;20.17;;
2111;SDS011;1062;52.538;13.400;2023-02-17T02:04:41;27.03;;;18.20;;
2111;SDS011;1062;52.538;13.400;2023-02-17T02:07:10;24.03;;;16.73;;
2111;SDS011;1062;52.538;13.400;2023-02-17T02:09:45;27.73;;;17.50;;
2111;SDS011;1062;52.538;13.400;2023-02-17T02:12:19;27.67;;;16.53;;
2111;SDS011;1062;52.538;13.400;2023-02-17T02:14:48;26.10;;;18.20;;
2111;SDS011;1062;52.538;13.400;2023-02-17T02:33:40;36.70;;;20.43;;
2111;SDS011;1062;52.538;13.400;2023-02-17T02:36:42;38.87;;;21.43;;
2111;SDS011;1062;52.538;13.400;2023-02-17T02:39:11;28.77;;;18.63;;
2111;SDS011;1062;52.538;13.400;2023-02-17T02:41:42;34.90;;;19.47;;
2111;SDS011;1062;52.538;13.400;2023-02-17T02:44:18;32.10;;;20.20;;
2111;SDS011;1062;52.538;13.400;2023-02-17T02:46:53;33.13;;;20.57;;
2111;SDS011;1062;52.538;13.400;2023-02-17T02:49:24;33.47;;;22.03;;
2111;SDS011;1062;52.538;13.400;2023-02-17T02:57:20;29.57;;;20.23;;
2111;SDS011;1062;52.538;13.400;2023-02-17T03:05:35;30.30;;;19.37;;
2111;SDS011;1062;52.538;13.400;2023-02-17T03:08:36;39.70;;;20.43;;
2111;SDS011;1062;52.538;13.400;2023-02-17T03:11:06;31.73;;;21.07;;
2111;SDS011;1062;52.538;13.400;2023-02-17T03:13:32;33.63;;;19.60;;
2111;SDS011;1062;52.538;13.400;2023-02-17T03:16:03;36.60;;;21.27;;
2111;SDS011;1062;52.538;13.400;2023-02-17T03:18:34;37.40;;;21.17;;
2111;SDS011;1062;52.538;13.400;2023-02-17T03:21:09;31.17;;;21.30;;
2111;SDS011;1062;52.538;13.400;2023-02-17T03:23:40;35.80;;;21.17;;
2111;SDS011;1062;52.538;13.400;2023-02-17T03:26:05;40.10;;;22.77;;
2111;SDS011;1062;52.538;13.400;2023-02-17T03:28:31;32.90;;;20.20;;
2111;SDS011;1062;52.538;13.400;2023-02-17T03:30:57;35.43;;;19.07;;
2111;SDS011;1062;52.538;13.400;2023-02-17T03:33:22;43.47;;;23.50;;
2111;SDS011;1062;52.538;13.400;2023-02-17T03:35:48;36.50;;;21.27;;
2111;SDS011;1062;52.538;13.400;2023-02-17T03:38:13;32.03;;;20.27;;
2111;SDS011;1062;52.538;13.400;2023-02-17T03:40:39;39.27;;;21.10;;
2111;SDS011;1062;52.538;13.400;2023-02-17T03:43:04;38.13;;;22.67;;
2111;SDS011;1062;52.538;13.400;2023-02-17T03:45:30;37.73;;;22.70;;
2111;SDS011;1062;52.538;13.400;2023-02-17T03:47:56;38.37;;;21.07;;
2111;SDS011;1062;52.538;13.400;2023-02-17T03:50:21;36.30;;;23.20;;
2111;SDS011;1062;52.538;13.400;2023-02-17T03:52:47;41.30;;;22.67;;
2111;SDS011;1062;52.538;13.400;2023-02-17T03:55:13;37.60;;;21.40;;
2111;SDS011;1062;52.538;13.400;2023-02-17T03:57:38;38.63;;;22.50;;
2111;SDS011;1062;52.538;13.400;2023-02-17T04:00:04;37.13;;;20.27;;
2111;SDS011;1062;52.538;13.400;2023-02-17T04:02:31;39.60;;;23.07;;
2111;SDS011;1062;52.538;13.400;2023-02-17T04:04:56;33.73;;;23.57;;
2111;SDS011;1062;52.538;13.400;2023-02-17T04:07:22;37.70;;;23.80;;
2111;SDS011;1062;52.538;13.400;2023-02-17T04:09:47;42.20;;;24.87;;
2111;SDS011;1062;52.538;13.400;2023-02-17T04:12:13;35.20;;;21.90;;
2111;SDS011;1062;52.538;13.400;2023-02-17T04:14:38;39.60;;;22.23;;
2111;SDS011;1062;52.538;13.400;2023-02-17T04:17:04;38.37;;;22.67;;
2111;SDS011;1062;52.538;13.400;2023-02-17T04:19:29;35.60;;;22.70;;
2111;SDS011;1062;52.538;13.400;2023-02-17T04:21:55;36.70;;;22.10;;
2111;SDS011;1062;52.538;13.400;2023-02-17T04:24:21;37.30;;;22.27;;
2111;SDS011;1062;52.538;13.400;2023-02-17T04:26:46;33.60;;;19.93;;
2111;SDS011;1062;52.538;13.400;2023-02-17T04:29:12;30.50;;;20.67;;
2111;SDS011;1062;52.538;13.400;2023-02-17T04:31:37;42.57;;;22.63;;
2111;SDS011;1062;52.538;13.400;2023-02-17T04:34:03;35.33;;;21.83;;
2111;SDS011;1062;52.538;13.400;2023-02-17T04:36:28;33.23;;;21.47;;
2111;SDS011;1062;52.538;13.400;2023-02-17T04:38:54;31.30;;;20.70;;
2111;SDS011;1062;52.538;13.400;2023-02-17T04:41:20;37.27;;;21.80;;
2111;SDS011;1062;52.538;13.400;2023-02-17T04:43:45;32.63;;;21.30;;
2111;SDS011;1062;52.538;13.400;2023-02-17T04:46:11;37.87;;;21.20;;
2111;SDS011;1062;52.538;13.400;2023-02-17T04:48:36;37.60;;;23.17;;
2111;SDS011;1062;52.538;13.400;2023-02-17T04:51:02;36.77;;;22.87;;
2111;SDS011;1062;52.538;13.400;2023-02-17T04:53:28;33.60;;;21.03;;
2111;SDS011;1062;52.538;13.400;2023-02-17T04:55:54;36.60;;;21.27;;
2111;SDS011;1062;52.538;13.400;2023-02-17T04:58:19;33.17;;;22.37;;
2111;SDS011;1062;52.538;13.400;2023-02-17T05:00:46;29.87;;;21.67;;
2111;SDS011;1062;52.538;13.400;2023-02-17T05:03:13;30.30;;;19.73;;
2111;SDS011;1062;52.538;13.400;2023-02-17T05:05:39;34.27;;;20.53;;
2111;SDS011;1062;52.538;13.400;2023-02-17T05:08:04;32.80;;;19.17;;
2111;SDS011;1062;52.538;13.400;2023-02-17T05:10:30;36.60;;;21.13;;
2111;SDS011;1062;52.538;13.400;2023-02-17T05:12:55;33.60;;;22.37;;
2111;SDS011;1062;52.538;13.400;2023-02-17T05:15:21;28.50;;;18.93;;
2111;SDS011;1062;52.538;13.400;2023-02-17T05:17:46;36.40;;;20.77;;
2111;SDS011;1062;52.538;13.400;2023-02-17T05:20:12;35.27;;;21.37;;
2111;SDS011;1062;52.538;13.400;2023-02-17T05:22:38;33.23;;;22.97;;
2111;SDS011;1062;52.538;13.400;2023-02-17T05:25:03;33.93;;;22.10;;
2111;SDS011;1062;52.538;13.400;2023-02-17T05:27:30;35.53;;;20.87;;
2111;SDS011;1062;52.538;13.400;2023-02-17T05:29:56;44.17;;;26.00;;
2111;SDS011;1062;52.538;13.400;2023-02-17T05:32:21;31.80;;;20.53;;
2111;SDS011;1062;52.538;13.400;2023-02-17T05:34:48;38.03;;;22.20;;
2111;SDS011;1062;52.538;13.400;2023-02-17T05:37:13;39.57;;;21.13;;
2111;SDS011;1062;52.538;13.400;2023-02-17T05:39:39;31.97;;;20.57;;
2111;SDS011;1062;52.538;13.400;2023-02-17T05:42:04;39.77;;;23.00;;
2111;SDS011;1062;52.538;13.400;2023-02-17T05:44:30;35.90;;;22.23;;
2111;SDS011;1062;52.538;13.400;2023-02-17T05:46:55;37.53;;;20.03;;
2111;SDS011;1062;52.538;13.400;2023-02-17T05:49:21;33.97;;;21.73;;
2111;SDS011;1062;52.538;13.400;2023-02-17T05:51:47;36.83;;;23.30;;
2111;SDS011;1062;52.538;13.400;2023-02-17T05:54:12;36.53;;;20.97;;
2111;SDS011;1062;52.538;13.400;2023-02-17T05:56:38;34.80;;;20.57;;
2111;SDS011;1062;52.538;13.400;2023-02-17T05:59:03;33.40;;;21.43;;
2111;SDS011;1062;52.538;13.400;2023-02-17T06:01:29;37.10;;;21.57;;
2111;SDS011;1062;52.538;13.400;2023-02-17T06:03:55;41.87;;;23.63;;
2111;SDS011;1062;52.538;13.400;2023-02-17T06:06:20;37.73;;;22.63;;
2111;SDS011;1062;52.538;13.400;2023-02-17T06:08:46;32.37;;;20.00;;
2111;SDS011;1062;52.538;13.400;2023-02-17T06:11:12;32.43;;;21.20;;
2111;SDS011;1062;52.538;13.400;2023-02-17T06:13:37;45.93;;;22.60;;
2111;SDS011;1062;52.538;13.400;2023-02-17T06:16:03;36.10;;;22.70;;
2111;SDS011;1062;52.538;13.400;2023-02-17T06:18:29;37.50;;;20.80;;
2111;SDS011;1062;52.538;13.400;2023-02-17T06:20:55;34.33;;;21.93;;
2111;SDS011;1062;52.538;13.400;2023-02-17T06:23:22;38.10;;;24.93;;
2111;SDS011;1062;52.538;13.400;2023-02-17T06:25:49;41.70;;;22.17;;
2111;SDS011;1062;52.538;13.400;2023-02-17T06:28:14;35.50;;;22.10;;
2111;SDS011;1062;52.538;13.400;2023-02-17T06:30:40;32.27;;;20.27;;
2111;SDS011;1062;52.538;13.400;2023-02-17T06:33:05;32.97;;;19.23;;
2111;SDS011;1062;52.538;13.400;2023-02-17T06:35:31;39.50;;;22.83;;
2111;SDS011;1062;52.538;13.400;2023-02-17T06:37:57;35.30;;;22.30;;
2111;SDS011;1062;52.538;13.400;2023-02-17T06:40:22;37.37;;;22.33;;
2111;SDS011;1062;52.538;13.400;2023-02-17T06:42:48;38.03;;;21.67;;
2111;SDS011;1062;52.538;13.400;2023-02-17T06:45:14;36.93;;;22.00;;
2111;SDS011;1062;52.538;13.400;2023-02-17T06:47:40;36.17;;;21.63;;
2111;SDS011;1062;52.538;13.400;2023-02-17T06:50:05;36.57;;;22.30;;
2111;SDS011;1062;52.538;13.400;2023-02-17T06:52:32;35.50;;;22.93;;
2111;SDS011;1062;52.538;13.400;2023-02-17T06:54:58;28.87;;;20.37;;
2111;SDS011;1062;52.538;13.400;2023-02-17T06:57:24;32.17;;;21.03;;
2111;SDS011;1062;52.538;13.400;2023-02-17T06:59:50;35.40;;;19.40;;
2111;SDS011;1062;52.538;13.400;2023-02-17T07:02:15;30.23;;;19.73;;
2111;SDS011;1062;52.538;13.400;2023-02-17T07:04:41;33.13;;;20.63;;
2111;SDS011;1062;52.538;13.400;2023-02-17T07:07:07;29.67;;;19.67;;
2111;SDS011;1062;52.538;13.400;2023-02-17T07:09:34;32.80;;;20.63;;
2111;SDS011;1062;52.538;13.400;2023-02-17T07:12:00;31.60;;;18.10;;
2111;SDS011;1062;52.538;13.400;2023-02-17T07:14:26;32.20;;;20.20;;
2111;SDS011;1062;52.538;13.400;2023-02-17T07:16:52;33.27;;;19.10;;
2111;SDS011;1062;52.538;13.400;2023-02-17T07:19:18;33.70;;;20.17;;
2111;SDS011;1062;52.538;13.400;2023-02-17T07:21:44;31.70;;;19.27;;
2111;SDS011;1062;52.538;13.400;2023-02-17T07:24:10;27.67;;;18.13;;
2111;SDS011;1062;52.538;13.400;2023-02-17T07:26:36;25.67;;;17.67;;
2111;SDS011;1062;52.538;13.400;2023-02-17T07:29:03;30.40;;;19.00;;
2111;SDS011;1062;52.538;13.400;2023-02-17T07:31:30;27.47;;;18.20;;
2111;SDS011;1062;52.538;13.400;2023-02-17T07:33:56;22.00;;;15.93;;
2111;SDS011;1062;52.538;13.400;2023-02-17T07:36:22;29.50;;;17.00;;
2111;SDS011;1062;52.538;13.400;2023-02-17T07:38:47;27.90;;;16.90;;
2111;SDS011;1062;52.538;13.400;2023-02-17T07:41:14;24.40;;;18.20;;
2111;SDS011;1062;52.538;13.400;2023-02-17T07:43:41;19.70;;;15.07;;
2111;SDS011;1062;52.538;13.400;2023-02-17T07:46:07;24.73;;;16.70;;
2111;SDS011;1062;52.538;13.400;2023-02-17T07:48:33;24.97;;;16.07;;
2111;SDS011;1062;52.538;13.400;2023-02-17T07:51:06;25.20;;;15.70;;
2111;SDS011;1062;52.538;13.400;2023-02-17T07:53:35;19.63;;;13.57;;
2111;SDS011;1062;52.538;13.400;2023-02-17T07:56:02;18.73;;;14.47;;
2111;SDS011;1062;52.538;13.400;2023-02-17T07:58:32;19.53;;;13.90;;
2111;SDS011;1062;52.538;13.400;2023-02-17T08:01:09;19.10;;;13.03;;
2111;SDS011;1062;52.538;13.400;2023-02-17T08:03:35;23.30;;;15.03;;
2111;SDS011;1062;52.538;13.400;2023-02-17T08:06:00;21.60;;;13.07;;
2111;SDS011;1062;52.538;13.400;2023-02-17T08:08:27;18.70;;;12.73;;
2111;SDS011;1062;52.538;13.400;2023-02-17T08:11:12;17.30;;;11.97;;
2111;SDS011;1062;52.538;13.400;2023-02-17T08:13:57;15.27;;;11.47;;
2111;SDS011;1062;52.538;13.400;2023-02-17T08:16:22;18.50;;;13.27;;
2111;SDS011;1062;52.538;13.400;2023-02-17T08:18:50;16.30;;;12.13;;
2111;SDS011;1062;52.538;13.400;2023-02-17T08:21:16;18.13;;;12.40;;
2111;SDS011;1062;52.538;13.400;2023-02-17T08:23:42;15.67;;;12.07;;
2111;SDS011;1062;52.538;13.400;2023-02-17T08:26:07;17.10;;;11.77;;
2111;SDS011;1062;52.538;13.400;2023-02-17T08:28:33;19.47;;;13.30;;
2111;SDS011;1062;52.538;13.400;2023-02-17T08:30:59;16.60;;;11.43;;
2111;SDS011;1062;52.538;13.400;2023-02-17T08:33:25;14.03;;;10.93;;
2111;SDS011;1062;52.538;13.400;2023-02-17T08:35:51;18.80;;;14.87;;
2111;SDS011;1062;52.538;13.400;2023-02-17T08:38:16;15.87;;;13.20;;
2111;SDS011;1062;52.538;13.400;2023-02-17T08:40:42;14.37;;;10.50;;
2111;SDS011;1062;52.538;13.400;2023-02-17T08:43:08;16.30;;;12.60;;
2111;SDS011;1062;52.538;13.400;2023-02-17T08:45:34;13.80;;;11.70;;
2111;SDS011;1062;52.538;13.400;2023-02-17T08:48:01;14.77;;;11.23;;
2111;SDS011;1062;52.538;13.400;2023-02-17T08:50:28;19.33;;;12.67;;
2111;SDS011;1062;52.538;13.400;2023-02-17T08:52:54;15.90;;;11.47;;
2111;SDS011;1062;52.538;13.400;2023-02-17T08:55:19;16.90;;;11.53;;
2111;SDS011;1062;52.538;13.400;2023-02-17T08:57:47;15.73;;;10.70;;
2111;SDS011;1062;52.538;13.400;2023-02-17T09:00:13;15.57;;;12.30;;
2111;SDS011;1062;52.538;13.400;2023-02-17T09:02:40;15.50;;;11.07;;
2111;SDS011;1062;52.538;13.400;2023-02-17T09:05:09;16.67;;;10.93;;
2111;SDS011;1062;52.538;13.400;2023-02-17T09:07:36;18.53;;;12.40;;
2111;SDS011;1062;52.538;13.400;2023-02-17T09:10:03;14.63;;;11.20;;
2111;SDS011;1062;52.538;13.400;2023-02-17T09:12:30;16.40;;;11.90;;
2111;SDS011;1062;52.538;13.400;2023-02-17T09:14:56;17.07;;;12.70;;
2111;SDS011;1062;52.538;13.400;2023-02-17T09:17:21;17.50;;;12.00;;
2111;SDS011;1062;52.538;13.400;2023-02-17T09:19:47;19.93;;;12.57;;
2111;SDS011;1062;52.538;13.400;2023-02-17T09:22:13;18.57;;;11.40;;
2111;SDS011;1062;52.538;13.400;2023-02-17T09:24:41;15.33;;;11.57;;
2111;SDS011;1062;52.538;13.400;2023-02-17T09:27:07;16.57;;;11.77;;
2111;SDS011;1062;52.538;13.400;2023-02-17T09:29:35;19.53;;;11.97;;
2111;SDS011;1062;52.538;13.400;2023-02-17T09:32:04;20.87;;;11.87;;
2111;SDS011;1062;52.538;13.400;2023-02-17T09:34:33;13.37;;;9.97;;
2111;SDS011;1062;52.538;13.400;2023-02-17T09:37:02;18.20;;;13.37;;
2111;SDS011;1062;52.538;13.400;2023-02-17T09:39:29;16.20;;;12.30;;
2111;SDS011;1062;52.538;13.400;2023-02-17T09:41:54;17.23;;;13.17;;
2111;SDS011;1062;52.538;13.400;2023-02-17T09:44:25;15.60;;;12.07;;
2111;SDS011;1062;52.538;13.400;2023-02-17T09:47:15;20.67;;;12.70;;
2111;SDS011;1062;52.538;13.400;2023-02-17T09:49:59;15.67;;;11.20;;
2111;SDS011;1062;52.538;13.400;2023-02-17T09:55:04;17.40;;;13.53;;
2111;SDS011;1062;52.538;13.400;2023-02-17T09:57:44;17.73;;;12.17;;
2111;SDS011;1062;52.538;13.400;2023-02-17T10:00:20;17.73;;;12.93;;
2111;SDS011;1062;52.538;13.400;2023-02-17T10:02:54;18.33;;;13.30;;
2111;SDS011;1062;52.538;13.400;2023-02-17T10:05:28;22.73;;;13.40;;
2111;SDS011;1062;52.538;13.400;2023-02-17T10:08:05;20.00;;;13.63;;
2111;SDS011;1062;52.538;13.400;2023-02-17T10:10:47;19.97;;;12.30;;
2111;SDS011;1062;52.538;13.400;2023-02-17T10:13:19;19.13;;;12.40;;
2111;SDS011;1062;52.538;13.400;2023-02-17T10:15:48;15.57;;;10.93;;
2111;SDS011;1062;52.538;13.400;2023-02-17T10:21:06;23.10;;;13.80;;
2111;SDS011;1062;52.538;13.400;2023-02-17T10:23:36;17.40;;;14.33;;
2111;SDS011;1062;52.538;13.400;2023-02-17T10:31:11;18.93;;;13.50;;
2111;SDS011;1062;52.538;13.400;2023-02-17T10:34:03;19.80;;;14.13;;
2111;SDS011;1062;52.538;13.400;2023-02-17T10:39:29;23.27;;;14.53;;
2111;SDS011;1062;52.538;13.400;2023-02-17T10:42:04;19.23;;;13.57;;
2111;SDS011;1062;52.538;13.400;2023-02-17T10:44:33;21.33;;;14.73;;
2111;SDS011;1062;52.538;13.400;2023-02-17T10:47:01;20.20;;;14.23;;
2111;SDS011;1062;52.538;13.400;2023-02-17T10:51:59;24.10;;;14.43;;
2111;SDS011;1062;52.538;13.400;2023-02-17T10:54:36;22.23;;;15.30;;
2111;SDS011;1062;52.538;13.400;2023-02-17T10:57:07;16.30;;;14.00;;
2111;SDS011;1062;52.538;13.400;2023-02-17T10:59:40;20.37;;;15.23;;
2111;SDS011;1062;52.538;13.400;2023-02-17T11:05:03;19.67;;;14.67;;
2111;SDS011;1062;52.538;13.400;2023-02-17T11:07:39;20.27;;;14.80;;
2111;SDS011;1062;52.538;13.400;2023-02-17T11:10:23;19.27;;;14.80;;
2111;SDS011;1062;52.538;13.400;2023-02-17T11:12:55;17.20;;;12.57;;
2111;SDS011;1062;52.538;13.400;2023-02-17T11:15:24;17.00;;;13.27;;
2111;SDS011;1062;52.538;13.400;2023-02-17T11:17:53;22.63;;;13.43;;
2111;SDS011;1062;52.538;13.400;2023-02-17T11:22:46;21.87;;;14.40;;
2111;SDS011;1062;52.538;13.400;2023-02-17T11:27:57;19.00;;;13.20;;
2111;SDS011;1062;52.538;13.400;2023-02-17T11:30:25;15.60;;;12.77;;
2111;SDS011;1062;52.538;13.400;2023-02-17T11:32:52;14.70;;;11.50;;
2111;SDS011;1062;52.538;13.400;2023-02-17T11:35:31;19.43;;;14.13;;
2111;SDS011;1062;52.538;13.400;2023-02-17T11:38:23;15.97;;;12.03;;
2111;SDS011;1062;52.538;13.400;2023-02-17T11:40:57;15.70;;;11.67;;
2111;SDS011;1062;52.538;13.400;2023-02-17T11:43:25;18.23;;;12.37;;
2111;SDS011;1062;52.538;13.400;2023-02-17T11:54:19;12.97;;;10.73;;
2111;SDS011;1062;52.538;13.400;2023-02-17T11:57:23;15.87;;;12.33;;
2111;SDS011;1062;52.538;13.400;2023-02-17T12:00:09;16.37;;;11.93;;
2111;SDS011;1062;52.538;13.400;2023-02-17T12:21:35;14.77;;;9.87;;
2111;SDS011;1062;52.538;13.400;2023-02-17T12:24:12;14.33;;;9.67;;
2111;SDS011;1062;52.538;13.400;2023-02-17T12:35:15;13.67;;;8.37;;
2111;SDS011;1062;52.538;13.400;2023-02-17T12:37:54;12.63;;;8.27;;
2111;SDS011;1062;52.538;13.400;2023-02-17T12:43:28;9.23;;;7.30;;
2111;SDS011;1062;52.538;13.400;2023-02-17T12:46:02;8.73;;;7.40;;
2111;SDS011;1062;52.538;13.400;2023-02-17T12:48:41;9.37;;;6.80;;
2111;SDS011;1062;52.538;13.400;2023-02-17T12:51:27;8.40;;;7.37;;
2111;SDS011;1062;52.538;13.400;2023-02-17T12:54:04;8.20;;;7.37;;
2111;SDS011;1062;52.538;13.400;2023-02-17T12:59:47;10.30;;;6.77;;
2111;SDS011;1062;52.538;13.400;2023-02-17T13:02:22;9.23;;;6.70;;
2111;SDS011;1062;52.538;13.400;2023-02-17T13:04:50;9.70;;;6.33;;
2111;SDS011;1062;52.538;13.400;2023-02-17T13:10:27;6.10;;;5.50;;
2111;SDS011;1062;52.538;13.400;2023-02-17T13:12:59;10.70;;;6.33;;
2111;SDS011;1062;52.538;13.400;2023-02-17T13:15:33;9.30;;;6.30;;
2111;SDS011;1062;52.538;13.400;2023-02-17T13:18:29;6.90;;;5.90;;
2111;SDS011;1062;52.538;13.400;2023-02-17T13:20:59;5.43;;;4.73;;
2111;SDS011;1062;52.538;13.400;2023-02-17T13:23:40;5.83;;;4.97;;
2111;SDS011;1062;52.538;13.400;2023-02-17T13:26:12;7.53;;;5.77;;
2111;SDS011;1062;52.538;13.400;2023-02-17T13:28:42;6.47;;;5.90;;
2111;SDS011;1062;52.538;13.400;2023-02-17T13:31:18;8.90;;;5.47;;
2111;SDS011;1062;52.538;13.400;2023-02-17T13:33:51;7.10;;;5.47;;
2111;SDS011;1062;52.538;13.400;2023-02-17T13:38:58;6.63;;;3.83;;
2111;SDS011;1062;52.538;13.400;2023-02-17T13:41:32;5.90;;;4.50;;
2111;SDS011;1062;52.538;13.400;2023-02-17T13:44:17;4.60;;;4.13;;
2111;SDS011;1062;52.538;13.400;2023-02-17T13:46:52;7.10;;;5.73;;
2111;SDS011;1062;52.538;13.400;2023-02-17T13:49:39;5.30;;;4.60;;
2111;SDS011;1062;52.538;13.400;2023-02-17T13:52:15;6.40;;;4.30;;
2111;SDS011;1062;52.538;13.400;2023-02-17T13:54:50;6.20;;;5.60;;
2111;SDS011;1062;52.538;13.400;2023-02-17T13:57:27;7.53;;;5.07;;
2111;SDS011;1062;52.538;13.400;2023-02-17T14:02:55;6.13;;;4.47;;
2111;SDS011;1062;52.538;13.400;2023-02-17T14:05:42;4.60;;;4.20;;
2111;SDS011;1062;52.538;13.400;2023-02-17T14:08:22;4.60;;;4.13;;
2111;SDS011;1062;52.538;13.400;2023-02-17T14:11:14;5.30;;;4.80;;
2111;SDS011;1062;52.538;13.400;2023-02-17T14:13:47;7.10;;;5.30;;
2111;SDS011;1062;52.538;13.400;2023-02-17T14:16:33;5.10;;;4.30;;
2111;SDS011;1062;52.538;13.400;2023-02-17T14:19:05;4.50;;;4.03;;
2111;SDS011;1062;52.538;13.400;2023-02-17T14:21:37;5.90;;;5.30;;
2111;SDS011;1062;52.538;13.400;2023-02-17T14:24:20;5.70;;;4.70;;
2111;SDS011;1062;52.538;13.400;2023-02-17T14:27:05;6.50;;;4.40;;
2111;SDS011;1062;52.538;13.400;2023-02-17T14:32:03;5.47;;;4.97;;
2111;SDS011;1062;52.538;13.400;2023-02-17T14:34:33;5.37;;;4.70;;
2111;SDS011;1062;52.538;13.400;2023-02-17T14:37:14;5.13;;;4.60;;
2111;SDS011;1062;52.538;13.400;2023-02-17T14:39:44;6.37;;;5.30;;
2111;SDS011;1062;52.538;13.400;2023-02-17T14:42:10;4.50;;;3.97;;
2111;SDS011;1062;52.538;13.400;2023-02-17T14:44:35;6.43;;;4.80;;
2111;SDS011;1062;52.538;13.400;2023-02-17T14:47:01;6.83;;;4.97;;
2111;SDS011;1062;52.538;13.400;2023-02-17T14:49:27;6.70;;;5.20;;
2111;SDS011;1062;52.538;13.400;2023-02-17T14:51:52;5.33;;;4.83;;
2111;SDS011;1062;52.538;13.400;2023-02-17T14:54:18;6.97;;;6.00;;
2111;SDS011;1062;52.538;13.400;2023-02-17T14:56:46;6.57;;;5.97;;
2111;SDS011;1062;52.538;13.400;2023-02-17T14:59:17;9.23;;;6.23;;
2111;SDS011;1062;52.538;13.400;2023-02-17T15:01:42;7.17;;;6.10;;
2111;SDS011;1062;52.538;13.400;2023-02-17T15:04:08;8.87;;;7.07;;
2111;SDS011;1062;52.538;13.400;2023-02-17T15:06:38;7.00;;;5.90;;
2111;SDS011;1062;52.538;13.400;2023-02-17T15:09:08;7.70;;;6.90;;
2111;SDS011;1062;52.538;13.400;2023-02-17T15:11:39;7.40;;;6.60;;
2111;SDS011;1062;52.538;13.400;2023-02-17T15:14:12;9.10;;;7.17;;
2111;SDS011;1062;52.538;13.400;2023-02-17T15:16:40;8.63;;;7.50;;
2111;SDS011;1062;52.538;13.400;2023-02-17T15:19:06;10.73;;;7.20;;
2111;SDS011;1062;52.538;13.400;2023-02-17T15:21:32;12.00;;;6.53;;
2111;SDS011;1062;52.538;13.400;2023-02-17T15:23:59;11.33;;;7.73;;
2111;SDS011;1062;52.538;13.400;2023-02-17T15:26:27;9.40;;;7.47;;
2111;SDS011;1062;52.538;13.400;2023-02-17T15:28:54;13.50;;;7.80;;
2111;SDS011;1062;52.538;13.400;2023-02-17T15:31:21;11.13;;;8.43;;
2111;SDS011;1062;52.538;13.400;2023-02-17T15:33:57;10.37;;;7.93;;
2111;SDS011;1062;52.538;13.400;2023-02-17T15:36:24;11.80;;;8.63;;
2111;SDS011;1062;52.538;13.400;2023-02-17T15:38:50;11.30;;;7.90;;
2111;SDS011;1062;52.538;13.400;2023-02-17T15:41:17;12.60;;;8.83;;
2111;SDS011;1062;52.538;13.400;2023-02-17T15:43:45;9.90;;;7.57;;
2111;SDS011;1062;52.538;13.400;2023-02-17T15:46:13;12.13;;;8.23;;
2111;SDS011;1062;52.538;13.400;2023-02-17T15:48:40;9.07;;;7.77;;
2111;SDS011;1062;52.538;13.400;2023-02-17T15:51:10;11.07;;;8.03;;
2111;SDS011;1062;52.538;13.400;2023-02-17T15:53:39;11.03;;;8.57;;
2111;SDS011;1062;52.538;13.400;2023-02-17T15:56:12;10.07;;;7.03;;
2111;SDS011;1062;52.538;13.400;2023-02-17T15:58:40;13.50;;;8.50;;
2111;SDS011;1062;52.538;13.400;2023-02-17T16:01:09;11.07;;;9.63;;
2111;SDS011;1062;52.538;13.400;2023-02-17T16:03:45;9.83;;;8.50;;
2111;SDS011;1062;52.538;13.400;2023-02-17T16:06:11;10.40;;;8.40;;
2111;SDS011;1062;52.538;13.400;2023-02-17T16:08:36;11.57;;;8.50;;
2111;SDS011;1062;52.538;13.400;2023-02-17T16:11:02;9.90;;;7.87;;
2111;SDS011;1062;52.538;13.400;2023-02-17T16:13:28;10.00;;;8.37;;
2111;SDS011;1062;52.538;13.400;2023-02-17T16:15:55;9.03;;;7.20;;
2111;SDS011;1062;52.538;13.400;2023-02-17T16:18:22;10.70;;;8.17;;
2111;SDS011;1062;52.538;13.400;2023-02-17T16:20:48;8.03;;;7.20;;
2111;SDS011;1062;52.538;13.400;2023-02-17T16:23:14;10.47;;;7.70;;
2111;SDS011;1062;52.538;13.400;2023-02-17T16:25:41;9.37;;;7.63;;
2111;SDS011;1062;52.538;13.400;2023-02-17T16:28:19;8.53;;;6.13;;
2111;SDS011;1062;52.538;13.400;2023-02-17T16:30:46;8.13;;;6.87;;
2111;SDS011;1062;52.538;13.400;2023-02-17T16:33:13;9.60;;;6.80;;
2111;SDS011;1062;52.538;13.400;2023-02-17T16:35:40;9.77;;;7.83;;
2111;SDS011;1062;52.538;13.400;2023-02-17T16:38:19;12.30;;;7.00;;
2111;SDS011;1062;52.538;13.400;2023-02-17T16:40:47;10.23;;;6.90;;